Hlavní strana
METAR-TAF:

METAR-TAF

Letiště :

Southern Illinois Airport

Carbondale / Murphysboro, Illinois, Spojené státy americké

zeměpisná šířka: 37-46-59N, zeměpisná délka: 089-14-42W, výška: 125 m

Aktuální stav počasí

Zpráva byla vytvořena před 24 minutami, v 03:26 UTC
Severní vítr 6 kt
Teplota -8°C
Vlhkost vzduchu 79%
Tlak 1030 hPa
Viditelnost: 16.1 km
Skoro jasno ve výšce 1200 ft
Oblačno až skoro zataženo ve výšce 2400 ft
Zataženo ve výšce 6500 ft

METAR: KMDH 210326Z AUTO 35006KT 10SM FEW012 BKN024 OVC065 M08/M11 A3043 RMK AO2 T10781106

Čas: 21:50 (03:50 UTC)


TAF: chybějící

Stav a předpovědi počasí z více než 4 000 letišť (zprávy METAR a TAF).

Červené a žluté tečky na mapě představují dostupné meteorologické stanice.

Když kurzor umístíte na tečku, zobrazí se název stanice.

Pak kliknutím zobrazíte stav a předpověď počasí.

Chcete-li změnit mapu, kliknutím na zelené tlačítko se znaménkem +mapu přiblížíte, kliknutím na zelené tlačítko se znaménkem – mapu oddálíte a kliknutím na zelené šipky přejdete na sousední mapy.


METAR-TAF: